sensor_id;sensor_type;location;lat;lon;timestamp;pressure;altitude;pressure_sealevel;temperature;humidity
48089;BME280;33867;50.314;7.802;2023-03-23T00:01:31;99523.03;;;12.43;nan
48089;BME280;33867;50.314;7.802;2023-03-23T00:04:51;99521.84;;;12.38;nan
48089;BME280;33867;50.314;7.802;2023-03-23T00:08:10;99517.19;;;12.23;nan
48089;BME280;33867;50.314;7.802;2023-03-23T00:11:32;99525.09;;;12.25;nan
48089;BME280;33867;50.314;7.802;2023-03-23T00:14:51;99523.16;;;12.03;nan
48089;BME280;33867;50.314;7.802;2023-03-23T00:18:12;99520.00;;;11.91;nan
48089;BME280;33867;50.314;7.802;2023-03-23T00:21:42;99506.84;;;11.96;nan
48089;BME280;33867;50.314;7.802;2023-03-23T00:25:01;99506.34;;;11.68;nan
48089;BME280;33867;50.314;7.802;2023-03-23T00:28:21;99511.78;;;11.52;nan
48089;BME280;33867;50.314;7.802;2023-03-23T00:31:44;99515.97;;;11.54;nan
48089;BME280;33867;50.314;7.802;2023-03-23T00:35:06;99506.91;;;11.39;nan
48089;BME280;33867;50.314;7.802;2023-03-23T00:38:25;99512.78;;;11.34;nan
48089;BME280;33867;50.314;7.802;2023-03-23T00:41:46;99507.09;;;11.37;nan
48089;BME280;33867;50.314;7.802;2023-03-23T00:45:08;99511.78;;;11.27;nan
48089;BME280;33867;50.314;7.802;2023-03-23T00:48:29;99518.84;;;11.20;nan
48089;BME280;33867;50.314;7.802;2023-03-23T00:51:48;99527.44;;;11.24;nan
48089;BME280;33867;50.314;7.802;2023-03-23T00:55:07;99526.28;;;11.26;nan
48089;BME280;33867;50.314;7.802;2023-03-23T00:58:26;99516.84;;;11.22;nan
48089;BME280;33867;50.314;7.802;2023-03-23T01:01:45;99507.91;;;11.22;nan
48089;BME280;33867;50.314;7.802;2023-03-23T01:05:06;99496.28;;;11.21;nan
48089;BME280;33867;50.314;7.802;2023-03-23T01:08:25;99472.88;;;11.22;nan
48089;BME280;33867;50.314;7.802;2023-03-23T01:11:46;99485.16;;;11.24;nan
48089;BME280;33867;50.314;7.802;2023-03-23T01:15:05;99475.25;;;11.25;nan
48089;BME280;33867;50.314;7.802;2023-03-23T01:18:25;99467.31;;;11.23;nan
48089;BME280;33867;50.314;7.802;2023-03-23T01:21:44;99467.97;;;11.33;nan
48089;BME280;33867;50.314;7.802;2023-03-23T01:25:04;99454.69;;;11.32;nan
48089;BME280;33867;50.314;7.802;2023-03-23T01:28:23;99447.13;;;11.19;nan
48089;BME280;33867;50.314;7.802;2023-03-23T01:31:42;99444.25;;;11.12;nan
48089;BME280;33867;50.314;7.802;2023-03-23T01:35:02;99450.47;;;11.29;nan
48089;BME280;33867;50.314;7.802;2023-03-23T01:38:21;99453.84;;;11.23;nan
48089;BME280;33867;50.314;7.802;2023-03-23T01:41:40;99447.97;;;11.28;nan
48089;BME280;33867;50.314;7.802;2023-03-23T01:45:31;99449.16;;;11.25;nan
48089;BME280;33867;50.314;7.802;2023-03-23T01:48:53;99466.47;;;11.31;nan
48089;BME280;33867;50.314;7.802;2023-03-23T01:52:20;99454.50;;;11.33;nan
48089;BME280;33867;50.314;7.802;2023-03-23T01:55:44;99449.13;;;11.33;nan
48089;BME280;33867;50.314;7.802;2023-03-23T01:59:08;99441.69;;;11.35;nan
48089;BME280;33867;50.314;7.802;2023-03-23T02:02:29;99449.13;;;11.41;nan
48089;BME280;33867;50.314;7.802;2023-03-23T02:05:50;99442.88;;;11.49;nan
48089;BME280;33867;50.314;7.802;2023-03-23T02:09:25;99441.34;;;11.47;nan
48089;BME280;33867;50.314;7.802;2023-03-23T02:12:44;99439.50;;;11.47;nan
48089;BME280;33867;50.314;7.802;2023-03-23T02:27:08;99422.66;;;11.45;nan
48089;BME280;33867;50.314;7.802;2023-03-23T02:30:39;99428.22;;;11.35;nan
48089;BME280;33867;50.314;7.802;2023-03-23T02:34:05;99432.63;;;11.20;nan
48089;BME280;33867;50.314;7.802;2023-03-23T02:37:37;99443.75;;;11.17;nan
48089;BME280;33867;50.314;7.802;2023-03-23T02:41:01;99433.47;;;11.12;nan
48089;BME280;33867;50.314;7.802;2023-03-23T02:44:23;99423.72;;;11.20;nan
48089;BME280;33867;50.314;7.802;2023-03-23T02:47:44;99418.50;;;11.18;nan
48089;BME280;33867;50.314;7.802;2023-03-23T02:51:11;99405.03;;;11.18;nan
48089;BME280;33867;50.314;7.802;2023-03-23T02:54:34;99418.66;;;11.17;nan
48089;BME280;33867;50.314;7.802;2023-03-23T02:57:54;99401.66;;;11.16;nan
48089;BME280;33867;50.314;7.802;2023-03-23T03:01:45;99411.75;;;11.22;nan
48089;BME280;33867;50.314;7.802;2023-03-23T03:08:50;99417.84;;;11.16;nan
48089;BME280;33867;50.314;7.802;2023-03-23T03:12:35;99421.00;;;11.11;nan
48089;BME280;33867;50.314;7.802;2023-03-23T03:16:06;99414.78;;;11.27;nan
48089;BME280;33867;50.314;7.802;2023-03-23T03:19:29;99407.84;;;11.33;nan
48089;BME280;33867;50.314;7.802;2023-03-23T03:22:50;99412.41;;;11.40;nan
48089;BME280;33867;50.314;7.802;2023-03-23T03:26:12;99401.63;;;11.32;nan
48089;BME280;33867;50.314;7.802;2023-03-23T03:29:44;99421.81;;;11.45;nan
48089;BME280;33867;50.314;7.802;2023-03-23T03:33:04;99417.78;;;11.32;nan
48089;BME280;33867;50.314;7.802;2023-03-23T03:36:28;99428.44;;;11.26;nan
48089;BME280;33867;50.314;7.802;2023-03-23T03:39:53;99421.53;;;11.15;nan
48089;BME280;33867;50.314;7.802;2023-03-23T03:43:14;99428.78;;;11.15;nan
48089;BME280;33867;50.314;7.802;2023-03-23T03:46:35;99438.53;;;11.16;nan
48089;BME280;33867;50.314;7.802;2023-03-23T03:49:54;99430.44;;;11.24;nan
48089;BME280;33867;50.314;7.802;2023-03-23T03:53:13;99432.81;;;11.27;nan
48089;BME280;33867;50.314;7.802;2023-03-23T03:56:35;99430.59;;;11.30;nan
48089;BME280;33867;50.314;7.802;2023-03-23T04:00:11;99427.72;;;11.24;nan
48089;BME280;33867;50.314;7.802;2023-03-23T04:03:33;99433.47;;;11.21;nan
48089;BME280;33867;50.314;7.802;2023-03-23T04:06:56;99438.38;;;11.25;nan
48089;BME280;33867;50.314;7.802;2023-03-23T04:10:16;99436.34;;;11.27;nan
48089;BME280;33867;50.314;7.802;2023-03-23T04:13:39;99432.63;;;11.28;nan
48089;BME280;33867;50.314;7.802;2023-03-23T04:17:15;99427.25;;;11.28;nan
48089;BME280;33867;50.314;7.802;2023-03-23T04:20:36;99430.13;;;11.27;nan
48089;BME280;33867;50.314;7.802;2023-03-23T04:23:56;99421.69;;;11.22;nan
48089;BME280;33867;50.314;7.802;2023-03-23T04:27:19;99426.75;;;11.25;nan
48089;BME280;33867;50.314;7.802;2023-03-23T04:30:38;99424.06;;;11.25;nan
48089;BME280;33867;50.314;7.802;2023-03-23T04:34:01;99434.97;;;11.23;nan
48089;BME280;33867;50.314;7.802;2023-03-23T04:37:26;99437.34;;;11.26;nan
48089;BME280;33867;50.314;7.802;2023-03-23T04:40:49;99438.19;;;11.27;nan
48089;BME280;33867;50.314;7.802;2023-03-23T04:44:27;99434.66;;;11.26;nan
48089;BME280;33867;50.314;7.802;2023-03-23T04:47:57;99432.94;;;11.33;nan
48089;BME280;33867;50.314;7.802;2023-03-23T04:51:28;99425.88;;;11.24;nan
48089;BME280;33867;50.314;7.802;2023-03-23T04:54:48;99429.06;;;11.36;nan
48089;BME280;33867;50.314;7.802;2023-03-23T04:58:09;99432.63;;;11.28;nan
48089;BME280;33867;50.314;7.802;2023-03-23T05:01:36;99433.97;;;11.32;nan
48089;BME280;33867;50.314;7.802;2023-03-23T05:05:23;99420.66;;;11.31;nan
48089;BME280;33867;50.314;7.802;2023-03-23T05:08:45;99439.00;;;11.35;nan
48089;BME280;33867;50.314;7.802;2023-03-23T05:12:09;99449.59;;;11.45;nan
48089;BME280;33867;50.314;7.802;2023-03-23T05:15:38;99452.00;;;11.40;nan
48089;BME280;33867;50.314;7.802;2023-03-23T05:18:58;99455.69;;;11.39;nan
48089;BME280;33867;50.314;7.802;2023-03-23T05:22:19;99444.06;;;11.38;nan
48089;BME280;33867;50.314;7.802;2023-03-23T05:25:43;99442.69;;;11.51;nan
48089;BME280;33867;50.314;7.802;2023-03-23T05:29:07;99429.06;;;11.52;nan
48089;BME280;33867;50.314;7.802;2023-03-23T05:32:35;99436.66;;;11.40;nan
48089;BME280;33867;50.314;7.802;2023-03-23T05:36:11;99435.47;;;11.43;nan
48089;BME280;33867;50.314;7.802;2023-03-23T05:39:51;99438.69;;;11.38;nan
48089;BME280;33867;50.314;7.802;2023-03-23T05:43:29;99436.47;;;11.34;nan
48089;BME280;33867;50.314;7.802;2023-03-23T05:47:21;99436.31;;;11.35;nan
48089;BME280;33867;50.314;7.802;2023-03-23T05:50:47;99441.03;;;11.33;nan
48089;BME280;33867;50.314;7.802;2023-03-23T05:54:06;99453.84;;;11.39;nan
48089;BME280;33867;50.314;7.802;2023-03-23T05:57:26;99436.66;;;11.40;nan
48089;BME280;33867;50.314;7.802;2023-03-23T06:01:07;99447.78;;;11.37;nan
48089;BME280;33867;50.314;7.802;2023-03-23T06:04:27;99457.69;;;11.45;nan
48089;BME280;33867;50.314;7.802;2023-03-23T06:07:59;99481.78;;;11.55;nan
48089;BME280;33867;50.314;7.802;2023-03-23T06:11:18;99480.09;;;11.62;nan
48089;BME280;33867;50.314;7.802;2023-03-23T06:14:52;99468.59;;;11.60;nan
48089;BME280;33867;50.314;7.802;2023-03-23T06:18:18;99480.56;;;11.65;nan
48089;BME280;33867;50.314;7.802;2023-03-23T06:22:01;99493.53;;;11.70;nan
48089;BME280;33867;50.314;7.802;2023-03-23T06:25:36;99487.28;;;11.78;nan
48089;BME280;33867;50.314;7.802;2023-03-23T06:28:55;99493.53;;;11.78;nan
48089;BME280;33867;50.314;7.802;2023-03-23T06:32:14;99481.41;;;11.82;nan
48089;BME280;33867;50.314;7.802;2023-03-23T06:35:35;99478.69;;;11.82;nan
48089;BME280;33867;50.314;7.802;2023-03-23T06:39:07;99480.38;;;11.83;nan
48089;BME280;33867;50.314;7.802;2023-03-23T06:42:39;99473.13;;;11.92;nan
48089;BME280;33867;50.314;7.802;2023-03-23T06:46:18;99483.41;;;11.96;nan
48089;BME280;33867;50.314;7.802;2023-03-23T06:49:57;99503.28;;;11.95;nan
48089;BME280;33867;50.314;7.802;2023-03-23T06:53:18;99507.31;;;11.99;nan
48089;BME280;33867;50.314;7.802;2023-03-23T06:56:40;99499.41;;;11.98;nan
48089;BME280;33867;50.314;7.802;2023-03-23T07:00:00;99505.47;;;12.00;nan
48089;BME280;33867;50.314;7.802;2023-03-23T07:03:20;99496.72;;;11.90;nan
48089;BME280;33867;50.314;7.802;2023-03-23T07:06:40;99501.09;;;11.91;nan
48089;BME280;33867;50.314;7.802;2023-03-23T07:10:03;99487.41;;;12.00;nan
48089;BME280;33867;50.314;7.802;2023-03-23T07:13:22;99494.50;;;11.93;nan
48089;BME280;33867;50.314;7.802;2023-03-23T07:16:46;99517.41;;;12.06;nan
48089;BME280;33867;50.314;7.802;2023-03-23T07:20:07;99514.41;;;12.00;nan
48089;BME280;33867;50.314;7.802;2023-03-23T07:23:28;99506.13;;;12.02;nan
48089;BME280;33867;50.314;7.802;2023-03-23T07:26:57;99500.53;;;12.12;nan
48089;BME280;33867;50.314;7.802;2023-03-23T07:30:17;99517.56;;;12.20;nan
48089;BME280;33867;50.314;7.802;2023-03-23T07:33:36;99515.50;;;12.22;nan
48089;BME280;33867;50.314;7.802;2023-03-23T07:36:57;99527.31;;;12.21;nan
48089;BME280;33867;50.314;7.802;2023-03-23T07:40:20;99514.97;;;12.27;nan
48089;BME280;33867;50.314;7.802;2023-03-23T07:43:43;99525.78;;;12.19;nan
48089;BME280;33867;50.314;7.802;2023-03-23T07:47:02;99525.09;;;12.25;nan
48089;BME280;33867;50.314;7.802;2023-03-23T07:50:25;99540.09;;;12.27;nan
48089;BME280;33867;50.314;7.802;2023-03-23T07:53:46;99536.91;;;12.32;nan
48089;BME280;33867;50.314;7.802;2023-03-23T07:57:25;99543.25;;;12.47;nan
48089;BME280;33867;50.314;7.802;2023-03-23T08:00:46;99536.72;;;12.65;nan
48089;BME280;33867;50.314;7.802;2023-03-23T08:04:07;99541.09;;;12.66;nan
48089;BME280;33867;50.314;7.802;2023-03-23T08:08:00;99538.94;;;12.61;nan
48089;BME280;33867;50.314;7.802;2023-03-23T08:11:39;99555.88;;;12.55;nan
48089;BME280;33867;50.314;7.802;2023-03-23T08:15:17;99536.06;;;12.63;nan
48089;BME280;33867;50.314;7.802;2023-03-23T08:18:51;99531.50;;;12.63;nan
48089;BME280;33867;50.314;7.802;2023-03-23T08:22:27;99531.78;;;12.76;nan
48089;BME280;33867;50.314;7.802;2023-03-23T08:26:08;99520.09;;;12.84;nan
48089;BME280;33867;50.314;7.802;2023-03-23T08:29:47;99532.94;;;12.82;nan
48089;BME280;33867;50.314;7.802;2023-03-23T08:33:26;99545.38;;;12.91;nan
48089;BME280;33867;50.314;7.802;2023-03-23T08:37:01;99552.09;;;12.95;nan
48089;BME280;33867;50.314;7.802;2023-03-23T08:40:39;99544.84;;;12.96;nan
48089;BME280;33867;50.314;7.802;2023-03-23T08:44:17;99540.84;;;13.14;nan
48089;BME280;33867;50.314;7.802;2023-03-23T08:47:51;99535.34;;;13.00;nan
48089;BME280;33867;50.314;7.802;2023-03-23T08:51:32;99538.22;;;13.29;nan
48089;BME280;33867;50.314;7.802;2023-03-23T08:55:14;99540.97;;;13.44;nan
48089;BME280;33867;50.314;7.802;2023-03-23T08:59:05;99534.34;;;13.46;nan
48089;BME280;33867;50.314;7.802;2023-03-23T09:02:58;99541.88;;;13.74;nan
48089;BME280;33867;50.314;7.802;2023-03-23T09:06:26;99537.66;;;13.71;nan
48089;BME280;33867;50.314;7.802;2023-03-23T09:09:45;99545.78;;;13.71;nan
48089;BME280;33867;50.314;7.802;2023-03-23T09:13:08;99555.88;;;13.78;nan
48089;BME280;33867;50.314;7.802;2023-03-23T09:16:30;99543.00;;;13.80;nan
48089;BME280;33867;50.314;7.802;2023-03-23T09:19:50;99546.75;;;13.93;nan
48089;BME280;33867;50.314;7.802;2023-03-23T09:23:10;99534.91;;;14.09;nan
48089;BME280;33867;50.314;7.802;2023-03-23T09:26:30;99561.13;;;13.94;nan
48089;BME280;33867;50.314;7.802;2023-03-23T09:29:50;99553.34;;;13.76;nan
48089;BME280;33867;50.314;7.802;2023-03-23T09:33:10;99549.03;;;13.67;nan
48089;BME280;33867;50.314;7.802;2023-03-23T09:36:31;99555.34;;;13.59;nan
48089;BME280;33867;50.314;7.802;2023-03-23T09:39:51;99561.19;;;13.48;nan
48089;BME280;33867;50.314;7.802;2023-03-23T09:43:39;99559.00;;;13.52;nan
48089;BME280;33867;50.314;7.802;2023-03-23T09:47:22;99562.16;;;13.55;nan
48089;BME280;33867;50.314;7.802;2023-03-23T09:50:44;99570.13;;;13.71;nan
48089;BME280;33867;50.314;7.802;2023-03-23T09:54:38;99573.41;;;13.82;nan
48089;BME280;33867;50.314;7.802;2023-03-23T09:58:26;99575.91;;;13.68;nan
48089;BME280;33867;50.314;7.802;2023-03-23T10:01:49;99580.44;;;13.91;nan
48089;BME280;33867;50.314;7.802;2023-03-23T10:08:53;99578.22;;;13.71;nan
48089;BME280;33867;50.314;7.802;2023-03-23T10:12:36;99577.47;;;14.15;nan
48089;BME280;33867;50.314;7.802;2023-03-23T10:16:01;99581.59;;;14.11;nan
48089;BME280;33867;50.314;7.802;2023-03-23T10:20:04;99573.22;;;14.50;nan
48089;BME280;33867;50.314;7.802;2023-03-23T10:23:52;99562.16;;;14.81;nan
48089;BME280;33867;50.314;7.802;2023-03-23T10:27:26;99563.72;;;15.12;nan
48089;BME280;33867;50.314;7.802;2023-03-23T10:30:55;99550.91;;;15.42;nan
48089;BME280;33867;50.314;7.802;2023-03-23T10:34:27;99562.81;;;15.90;nan
48089;BME280;33867;50.314;7.802;2023-03-23T10:37:51;99563.69;;;15.97;nan
48089;BME280;33867;50.314;7.802;2023-03-23T10:41:16;99568.25;;;15.90;nan
48089;BME280;33867;50.314;7.802;2023-03-23T10:44:35;99581.09;;;15.75;nan
48089;BME280;33867;50.314;7.802;2023-03-23T10:47:59;99581.41;;;15.65;nan
48089;BME280;33867;50.314;7.802;2023-03-23T10:51:28;99586.63;;;15.45;nan
48089;BME280;33867;50.314;7.802;2023-03-23T10:54:54;99599.47;;;15.01;nan
48089;BME280;33867;50.314;7.802;2023-03-23T10:58:27;99607.03;;;14.69;nan
48089;BME280;33867;50.314;7.802;2023-03-23T11:01:51;99613.09;;;14.71;nan
48089;BME280;33867;50.314;7.802;2023-03-23T11:05:20;99610.94;;;14.52;nan
48089;BME280;33867;50.314;7.802;2023-03-23T11:08:55;99592.06;;;14.73;nan
48089;BME280;33867;50.314;7.802;2023-03-23T11:12:19;99597.00;;;14.84;nan
48089;BME280;33867;50.314;7.802;2023-03-23T11:15:41;99613.63;;;14.96;nan
48089;BME280;33867;50.314;7.802;2023-03-23T11:19:12;99615.19;;;14.90;nan
48089;BME280;33867;50.314;7.802;2023-03-23T11:22:32;99617.81;;;14.99;nan
48089;BME280;33867;50.314;7.802;2023-03-23T11:26:03;99614.75;;;15.23;nan
48089;BME280;33867;50.314;7.802;2023-03-23T11:29:26;99614.75;;;15.23;nan
48089;BME280;33867;50.314;7.802;2023-03-23T11:32:47;99610.94;;;15.17;nan
48089;BME280;33867;50.314;7.802;2023-03-23T11:36:07;99604.84;;;15.30;nan
48089;BME280;33867;50.314;7.802;2023-03-23T11:39:32;99594.97;;;15.65;nan
48089;BME280;33867;50.314;7.802;2023-03-23T11:46:32;99582.34;;;17.17;nan
48089;BME280;33867;50.314;7.802;2023-03-23T11:50:20;99573.31;;;17.10;nan
48089;BME280;33867;50.314;7.802;2023-03-23T11:54:04;99568.00;;;17.76;nan
48089;BME280;33867;50.314;7.802;2023-03-23T11:57:26;99562.56;;;17.76;nan
48089;BME280;33867;50.314;7.802;2023-03-23T12:01:13;99566.53;;;17.80;nan
48089;BME280;33867;50.314;7.802;2023-03-23T12:14:56;99535.00;;;18.37;nan
48089;BME280;33867;50.314;7.802;2023-03-23T12:18:37;99534.63;;;18.27;nan
48089;BME280;33867;50.314;7.802;2023-03-23T12:22:30;99520.38;;;18.19;nan
48089;BME280;33867;50.314;7.802;2023-03-23T12:26:02;99517.03;;;18.10;nan
48089;BME280;33867;50.314;7.802;2023-03-23T12:29:29;99528.16;;;18.15;nan
48089;BME280;33867;50.314;7.802;2023-03-23T12:33:07;99543.03;;;18.13;nan
48089;BME280;33867;50.314;7.802;2023-03-23T12:36:45;99543.06;;;17.93;nan
48089;BME280;33867;50.314;7.802;2023-03-23T12:43:48;99542.63;;;17.82;nan
48089;BME280;33867;50.314;7.802;2023-03-23T12:47:21;99530.50;;;17.78;nan
48089;BME280;33867;50.314;7.802;2023-03-23T12:51:07;99532.97;;;18.06;nan
48089;BME280;33867;50.314;7.802;2023-03-23T13:01:40;99512.56;;;18.93;nan
48089;BME280;33867;50.314;7.802;2023-03-23T13:08:31;99505.91;;;20.39;nan
48089;BME280;33867;50.314;7.802;2023-03-23T13:11:53;99510.06;;;20.41;nan
48089;BME280;33867;50.314;7.802;2023-03-23T13:15:44;99507.56;;;19.78;nan
48089;BME280;33867;50.314;7.802;2023-03-23T13:19:34;99520.03;;;19.93;nan
48089;BME280;33867;50.314;7.802;2023-03-23T13:23:16;99519.66;;;19.89;nan
48089;BME280;33867;50.314;7.802;2023-03-23T13:26:41;99518.84;;;20.07;nan
48089;BME280;33867;50.314;7.802;2023-03-23T13:30:18;99518.78;;;19.70;nan
48089;BME280;33867;50.314;7.802;2023-03-23T13:33:53;99497.72;;;19.21;nan
48089;BME280;33867;50.314;7.802;2023-03-23T13:40:42;99515.41;;;18.67;nan
48089;BME280;33867;50.314;7.802;2023-03-23T13:44:19;99514.03;;;18.38;nan
48089;BME280;33867;50.314;7.802;2023-03-23T13:47:40;99523.34;;;18.04;nan
48089;BME280;33867;50.314;7.802;2023-03-23T13:51:00;99524.44;;;17.76;nan
48089;BME280;33867;50.314;7.802;2023-03-23T13:54:29;99512.44;;;17.31;nan
48089;BME280;33867;50.314;7.802;2023-03-23T14:01:32;99507.66;;;17.79;nan
48089;BME280;33867;50.314;7.802;2023-03-23T14:04:54;99509.53;;;17.59;nan
48089;BME280;33867;50.314;7.802;2023-03-23T14:12:14;99509.53;;;17.52;nan
48089;BME280;33867;50.314;7.802;2023-03-23T14:15:42;99502.84;;;17.55;nan
48089;BME280;33867;50.314;7.802;2023-03-23T14:19:21;99508.06;;;17.30;nan
48089;BME280;33867;50.314;7.802;2023-03-23T14:22:41;99508.09;;;17.76;nan
48089;BME280;33867;50.314;7.802;2023-03-23T14:26:10;99498.91;;;18.49;nan
48089;BME280;33867;50.314;7.802;2023-03-23T14:29:29;99509.16;;;18.53;nan
48089;BME280;33867;50.314;7.802;2023-03-23T14:32:51;99516.19;;;18.16;nan
48089;BME280;33867;50.314;7.802;2023-03-23T14:36:10;99510.78;;;17.96;nan
48089;BME280;33867;50.314;7.802;2023-03-23T14:39:33;99505.75;;;17.20;nan
48089;BME280;33867;50.314;7.802;2023-03-23T14:42:55;99496.13;;;17.38;nan
48089;BME280;33867;50.314;7.802;2023-03-23T14:46:16;99497.16;;;17.63;nan
48089;BME280;33867;50.314;7.802;2023-03-23T14:49:37;99502.41;;;17.58;nan
48089;BME280;33867;50.314;7.802;2023-03-23T14:52:59;99501.56;;;17.44;nan
48089;BME280;33867;50.314;7.802;2023-03-23T14:56:21;99509.09;;;17.22;nan
48089;BME280;33867;50.314;7.802;2023-03-23T14:59:43;99518.03;;;16.97;nan
48089;BME280;33867;50.314;7.802;2023-03-23T15:03:04;99528.22;;;16.75;nan
48089;BME280;33867;50.314;7.802;2023-03-23T15:06:28;99523.00;;;16.73;nan
48089;BME280;33867;50.314;7.802;2023-03-23T15:09:49;99521.56;;;16.84;nan
48089;BME280;33867;50.314;7.802;2023-03-23T15:13:12;99514.97;;;16.58;nan
48089;BME280;33867;50.314;7.802;2023-03-23T15:16:32;99514.00;;;16.79;nan
48089;BME280;33867;50.314;7.802;2023-03-23T15:19:52;99512.63;;;16.55;nan
48089;BME280;33867;50.314;7.802;2023-03-23T15:23:16;99513.09;;;16.59;nan
48089;BME280;33867;50.314;7.802;2023-03-23T15:26:43;99518.47;;;16.52;nan
48089;BME280;33867;50.314;7.802;2023-03-23T15:30:27;99521.41;;;16.51;nan
48089;BME280;33867;50.314;7.802;2023-03-23T15:33:47;99510.09;;;16.47;nan
48089;BME280;33867;50.314;7.802;2023-03-23T15:40:52;99507.44;;;16.67;nan
48089;BME280;33867;50.314;7.802;2023-03-23T15:44:22;99502.16;;;16.46;nan
48089;BME280;33867;50.314;7.802;2023-03-23T15:51:02;99490.03;;;16.48;nan
48089;BME280;33867;50.314;7.802;2023-03-23T15:54:22;99490.19;;;16.40;nan
48089;BME280;33867;50.314;7.802;2023-03-23T15:57:41;99489.56;;;16.38;nan
48089;BME280;33867;50.314;7.802;2023-03-23T16:01:19;99486.59;;;15.92;nan
48089;BME280;33867;50.314;7.802;2023-03-23T16:04:39;99493.22;;;16.11;nan
48089;BME280;33867;50.314;7.802;2023-03-23T16:07:58;99494.81;;;15.98;nan
48089;BME280;33867;50.314;7.802;2023-03-23T16:11:17;99495.09;;;15.82;nan
48089;BME280;33867;50.314;7.802;2023-03-23T16:14:37;99492.16;;;15.77;nan
48089;BME280;33867;50.314;7.802;2023-03-23T16:17:56;99487.16;;;15.53;nan
48089;BME280;33867;50.314;7.802;2023-03-23T16:21:15;99474.97;;;15.48;nan
48089;BME280;33867;50.314;7.802;2023-03-23T16:24:34;99493.75;;;15.65;nan
48089;BME280;33867;50.314;7.802;2023-03-23T16:27:53;99477.66;;;15.63;nan
48089;BME280;33867;50.314;7.802;2023-03-23T16:31:12;99476.81;;;14.77;nan
48089;BME280;33867;50.314;7.802;2023-03-23T16:34:31;99476.41;;;14.95;nan
48089;BME280;33867;50.314;7.802;2023-03-23T16:37:55;99473.50;;;14.97;nan
48089;BME280;33867;50.314;7.802;2023-03-23T16:41:14;99461.94;;;15.09;nan
48089;BME280;33867;50.314;7.802;2023-03-23T16:44:34;99460.78;;;15.18;nan
48089;BME280;33867;50.314;7.802;2023-03-23T16:47:53;99453.19;;;15.14;nan
48089;BME280;33867;50.314;7.802;2023-03-23T16:51:15;99466.44;;;15.02;nan
48089;BME280;33867;50.314;7.802;2023-03-23T16:54:34;99452.81;;;14.38;nan
48089;BME280;33867;50.314;7.802;2023-03-23T16:57:53;99459.84;;;14.32;nan
48089;BME280;33867;50.314;7.802;2023-03-23T17:01:12;99465.91;;;14.34;nan
48089;BME280;33867;50.314;7.802;2023-03-23T17:04:32;99474.16;;;14.12;nan
48089;BME280;33867;50.314;7.802;2023-03-23T17:07:52;99467.34;;;14.01;nan
48089;BME280;33867;50.314;7.802;2023-03-23T17:11:13;99473.66;;;14.08;nan
48089;BME280;33867;50.314;7.802;2023-03-23T17:14:32;99480.28;;;14.05;nan
48089;BME280;33867;50.314;7.802;2023-03-23T17:17:52;99487.84;;;13.81;nan
48089;BME280;33867;50.314;7.802;2023-03-23T17:21:12;99486.56;;;13.77;nan
48089;BME280;33867;50.314;7.802;2023-03-23T17:24:31;99485.44;;;13.86;nan
48089;BME280;33867;50.314;7.802;2023-03-23T17:27:51;99493.25;;;13.51;nan
48089;BME280;33867;50.314;7.802;2023-03-23T17:31:10;99491.84;;;13.55;nan
48089;BME280;33867;50.314;7.802;2023-03-23T17:34:29;99489.28;;;13.39;nan
48089;BME280;33867;50.314;7.802;2023-03-23T17:37:48;99494.59;;;13.47;nan
48089;BME280;33867;50.314;7.802;2023-03-23T17:41:08;99505.63;;;13.23;nan
48089;BME280;33867;50.314;7.802;2023-03-23T17:44:29;99497.84;;;13.28;nan
48089;BME280;33867;50.314;7.802;2023-03-23T17:47:48;99498.56;;;13.13;nan
48089;BME280;33867;50.314;7.802;2023-03-23T17:51:07;99504.81;;;13.22;nan
48089;BME280;33867;50.314;7.802;2023-03-23T17:54:26;99515.47;;;13.15;nan
48089;BME280;33867;50.314;7.802;2023-03-23T17:57:47;99509.09;;;13.08;nan
48089;BME280;33867;50.314;7.802;2023-03-23T18:01:06;99511.19;;;12.98;nan
48089;BME280;33867;50.314;7.802;2023-03-23T18:04:26;99509.28;;;13.07;nan
48089;BME280;33867;50.314;7.802;2023-03-23T18:07:45;99507.06;;;13.10;nan
48089;BME280;33867;50.314;7.802;2023-03-23T18:11:04;99499.78;;;12.88;nan
48089;BME280;33867;50.314;7.802;2023-03-23T18:14:23;99502.16;;;12.91;nan
48089;BME280;33867;50.314;7.802;2023-03-23T18:17:42;99501.19;;;12.84;nan
48089;BME280;33867;50.314;7.802;2023-03-23T18:21:08;99508.63;;;12.82;nan
48089;BME280;33867;50.314;7.802;2023-03-23T18:24:27;99511.00;;;12.77;nan
48089;BME280;33867;50.314;7.802;2023-03-23T18:27:46;99508.06;;;12.86;nan
48089;BME280;33867;50.314;7.802;2023-03-23T18:31:09;99511.25;;;12.67;nan
48089;BME280;33867;50.314;7.802;2023-03-23T18:34:29;99525.41;;;12.69;nan
48089;BME280;33867;50.314;7.802;2023-03-23T18:37:49;99517.38;;;12.53;nan
48089;BME280;33867;50.314;7.802;2023-03-23T18:41:09;99521.66;;;12.47;nan
48089;BME280;33867;50.314;7.802;2023-03-23T18:44:28;99523.34;;;12.40;nan
48089;BME280;33867;50.314;7.802;2023-03-23T18:47:48;99515.41;;;12.47;nan
48089;BME280;33867;50.314;7.802;2023-03-23T18:51:07;99509.72;;;12.34;nan
48089;BME280;33867;50.314;7.802;2023-03-23T18:54:27;99511.22;;;12.36;nan
48089;BME280;33867;50.314;7.802;2023-03-23T18:57:46;99512.88;;;12.45;nan
48089;BME280;33867;50.314;7.802;2023-03-23T19:01:10;99508.81;;;12.49;nan
48089;BME280;33867;50.314;7.802;2023-03-23T19:04:30;99509.44;;;12.59;nan
48089;BME280;33867;50.314;7.802;2023-03-23T19:07:51;99515.53;;;12.53;nan
48089;BME280;33867;50.314;7.802;2023-03-23T19:11:13;99506.41;;;12.54;nan
48089;BME280;33867;50.314;7.802;2023-03-23T19:14:33;99505.09;;;12.50;nan
48089;BME280;33867;50.314;7.802;2023-03-23T19:17:53;99503.25;;;12.43;nan
48089;BME280;33867;50.314;7.802;2023-03-23T19:21:14;99492.81;;;12.40;nan
48089;BME280;33867;50.314;7.802;2023-03-23T19:24:34;99488.06;;;12.42;nan
48089;BME280;33867;50.314;7.802;2023-03-23T19:27:53;99492.53;;;12.26;nan
48089;BME280;33867;50.314;7.802;2023-03-23T19:31:12;99491.34;;;12.29;nan
48089;BME280;33867;50.314;7.802;2023-03-23T19:34:33;99479.13;;;12.10;nan
48089;BME280;33867;50.314;7.802;2023-03-23T19:37:52;99471.53;;;12.06;nan
48089;BME280;33867;50.314;7.802;2023-03-23T19:41:11;99456.75;;;11.93;nan
48089;BME280;33867;50.314;7.802;2023-03-23T19:44:31;99461.13;;;11.94;nan